sensor_id;sensor_type;location;lat;lon;timestamp;temperature;humidity
46898;DHT22;32646;50.958;6.258;2022-09-09T00:00:48;14.40;99.90
46898;DHT22;32646;50.958;6.258;2022-09-09T00:03:32;14.40;99.90
46898;DHT22;32646;50.958;6.258;2022-09-09T00:06:30;14.30;99.90
46898;DHT22;32646;50.958;6.258;2022-09-09T00:09:16;14.30;99.90
46898;DHT22;32646;50.958;6.258;2022-09-09T00:11:47;14.20;99.90
46898;DHT22;32646;50.958;6.258;2022-09-09T00:14:26;14.10;99.90
46898;DHT22;32646;50.958;6.258;2022-09-09T00:16:58;14.10;99.90
46898;DHT22;32646;50.958;6.258;2022-09-09T00:19:33;14.10;99.90
46898;DHT22;32646;50.958;6.258;2022-09-09T00:24:51;14.00;99.90
46898;DHT22;32646;50.958;6.258;2022-09-09T00:30:14;14.10;99.90
46898;DHT22;32646;50.958;6.258;2022-09-09T00:32:40;14.00;99.90
46898;DHT22;32646;50.958;6.258;2022-09-09T00:35:17;13.90;99.90
46898;DHT22;32646;50.958;6.258;2022-09-09T00:37:48;13.90;99.90
46898;DHT22;32646;50.958;6.258;2022-09-09T00:40:40;13.90;99.90
46898;DHT22;32646;50.958;6.258;2022-09-09T00:46:14;13.80;99.90
46898;DHT22;32646;50.958;6.258;2022-09-09T00:48:53;13.80;99.90
46898;DHT22;32646;50.958;6.258;2022-09-09T00:56:54;13.70;99.90
46898;DHT22;32646;50.958;6.258;2022-09-09T00:59:52;13.60;99.90
46898;DHT22;32646;50.958;6.258;2022-09-09T01:02:29;13.60;99.90
46898;DHT22;32646;50.958;6.258;2022-09-09T01:05:07;13.60;99.90
46898;DHT22;32646;50.958;6.258;2022-09-09T01:07:39;13.60;99.90
46898;DHT22;32646;50.958;6.258;2022-09-09T01:10:43;13.60;99.90
46898;DHT22;32646;50.958;6.258;2022-09-09T01:13:14;13.60;99.90
46898;DHT22;32646;50.958;6.258;2022-09-09T01:15:44;13.70;99.90
46898;DHT22;32646;50.958;6.258;2022-09-09T01:18:15;13.70;99.90
46898;DHT22;32646;50.958;6.258;2022-09-09T01:20:55;13.80;99.90
46898;DHT22;32646;50.958;6.258;2022-09-09T01:23:44;13.90;99.90
46898;DHT22;32646;50.958;6.258;2022-09-09T01:26:25;13.90;99.90
46898;DHT22;32646;50.958;6.258;2022-09-09T01:28:53;13.90;99.90
46898;DHT22;32646;50.958;6.258;2022-09-09T01:31:56;13.90;99.90
46898;DHT22;32646;50.958;6.258;2022-09-09T01:34:29;13.90;99.90
46898;DHT22;32646;50.958;6.258;2022-09-09T01:39:26;14.00;99.90
46898;DHT22;32646;50.958;6.258;2022-09-09T01:41:55;14.00;99.90
46898;DHT22;32646;50.958;6.258;2022-09-09T01:44:22;13.90;99.90
46898;DHT22;32646;50.958;6.258;2022-09-09T01:46:49;14.00;99.90
46898;DHT22;32646;50.958;6.258;2022-09-09T01:49:17;14.10;99.90
46898;DHT22;32646;50.958;6.258;2022-09-09T01:51:46;14.20;99.90
46898;DHT22;32646;50.958;6.258;2022-09-09T01:54:15;14.20;99.90
46898;DHT22;32646;50.958;6.258;2022-09-09T01:59:40;14.40;99.90
46898;DHT22;32646;50.958;6.258;2022-09-09T02:02:17;14.60;99.90
46898;DHT22;32646;50.958;6.258;2022-09-09T02:04:48;14.60;99.90
46898;DHT22;32646;50.958;6.258;2022-09-09T02:07:50;14.70;99.90
46898;DHT22;32646;50.958;6.258;2022-09-09T02:10:25;14.80;99.90
46898;DHT22;32646;50.958;6.258;2022-09-09T02:13:09;14.80;99.90
46898;DHT22;32646;50.958;6.258;2022-09-09T02:15:39;15.00;99.90
46898;DHT22;32646;50.958;6.258;2022-09-09T02:18:08;15.00;99.90
46898;DHT22;32646;50.958;6.258;2022-09-09T02:20:38;15.00;99.90
46898;DHT22;32646;50.958;6.258;2022-09-09T02:23:06;15.10;99.90
46898;DHT22;32646;50.958;6.258;2022-09-09T02:25:35;15.20;99.90
46898;DHT22;32646;50.958;6.258;2022-09-09T02:28:06;15.30;99.90
46898;DHT22;32646;50.958;6.258;2022-09-09T02:30:34;15.50;99.90
46898;DHT22;32646;50.958;6.258;2022-09-09T02:33:03;15.50;99.90
46898;DHT22;32646;50.958;6.258;2022-09-09T02:35:32;15.60;99.90
46898;DHT22;32646;50.958;6.258;2022-09-09T02:38:04;15.60;99.90
46898;DHT22;32646;50.958;6.258;2022-09-09T02:40:31;15.70;99.90
46898;DHT22;32646;50.958;6.258;2022-09-09T02:42:58;15.70;99.90
46898;DHT22;32646;50.958;6.258;2022-09-09T02:45:27;15.90;99.90
46898;DHT22;32646;50.958;6.258;2022-09-09T02:48:16;15.90;99.90
46898;DHT22;32646;50.958;6.258;2022-09-09T02:51:04;15.80;99.90
46898;DHT22;32646;50.958;6.258;2022-09-09T02:54:01;15.80;99.90
46898;DHT22;32646;50.958;6.258;2022-09-09T02:56:32;15.90;99.90
46898;DHT22;32646;50.958;6.258;2022-09-09T02:59:04;15.90;99.90
46898;DHT22;32646;50.958;6.258;2022-09-09T03:01:31;15.90;99.90
46898;DHT22;32646;50.958;6.258;2022-09-09T03:03:57;15.90;99.90
46898;DHT22;32646;50.958;6.258;2022-09-09T03:06:24;16.00;99.90
46898;DHT22;32646;50.958;6.258;2022-09-09T03:08:51;16.10;99.90
46898;DHT22;32646;50.958;6.258;2022-09-09T03:11:22;16.20;99.90
46898;DHT22;32646;50.958;6.258;2022-09-09T03:13:49;16.20;99.90
46898;DHT22;32646;50.958;6.258;2022-09-09T03:16:16;16.30;99.90
46898;DHT22;32646;50.958;6.258;2022-09-09T03:18:42;16.30;99.90
46898;DHT22;32646;50.958;6.258;2022-09-09T03:21:09;16.30;99.90
46898;DHT22;32646;50.958;6.258;2022-09-09T03:23:35;16.30;99.90
46898;DHT22;32646;50.958;6.258;2022-09-09T03:26:02;16.30;99.90
46898;DHT22;32646;50.958;6.258;2022-09-09T03:28:28;16.30;99.90
46898;DHT22;32646;50.958;6.258;2022-09-09T03:31:01;16.30;99.90
46898;DHT22;32646;50.958;6.258;2022-09-09T03:33:28;16.30;99.90
46898;DHT22;32646;50.958;6.258;2022-09-09T03:35:55;16.20;99.90
46898;DHT22;32646;50.958;6.258;2022-09-09T03:38:25;16.20;99.90
46898;DHT22;32646;50.958;6.258;2022-09-09T03:40:53;16.20;99.90
46898;DHT22;32646;50.958;6.258;2022-09-09T03:43:20;16.20;99.90
46898;DHT22;32646;50.958;6.258;2022-09-09T03:45:47;16.20;99.90
46898;DHT22;32646;50.958;6.258;2022-09-09T03:48:14;16.20;99.90
46898;DHT22;32646;50.958;6.258;2022-09-09T03:50:59;16.20;99.90
46898;DHT22;32646;50.958;6.258;2022-09-09T03:53:25;16.20;99.90
46898;DHT22;32646;50.958;6.258;2022-09-09T03:55:54;16.20;99.90
46898;DHT22;32646;50.958;6.258;2022-09-09T03:58:22;16.30;99.90
46898;DHT22;32646;50.958;6.258;2022-09-09T04:01:00;16.30;99.90
46898;DHT22;32646;50.958;6.258;2022-09-09T04:03:28;16.30;99.90
46898;DHT22;32646;50.958;6.258;2022-09-09T04:05:55;16.30;99.90
46898;DHT22;32646;50.958;6.258;2022-09-09T04:08:23;16.30;99.90
46898;DHT22;32646;50.958;6.258;2022-09-09T04:10:49;16.30;99.90
46898;DHT22;32646;50.958;6.258;2022-09-09T04:13:17;16.40;99.90
46898;DHT22;32646;50.958;6.258;2022-09-09T04:15:49;16.40;99.90
46898;DHT22;32646;50.958;6.258;2022-09-09T04:18:16;16.40;99.90
46898;DHT22;32646;50.958;6.258;2022-09-09T04:20:49;16.40;99.90
46898;DHT22;32646;50.958;6.258;2022-09-09T04:23:17;16.40;99.90
46898;DHT22;32646;50.958;6.258;2022-09-09T04:25:48;16.40;99.90
46898;DHT22;32646;50.958;6.258;2022-09-09T04:28:16;16.30;99.90
46898;DHT22;32646;50.958;6.258;2022-09-09T04:30:43;16.40;99.90
46898;DHT22;32646;50.958;6.258;2022-09-09T04:33:10;16.30;99.90
46898;DHT22;32646;50.958;6.258;2022-09-09T04:35:38;16.30;99.90
46898;DHT22;32646;50.958;6.258;2022-09-09T04:38:05;16.40;99.90
46898;DHT22;32646;50.958;6.258;2022-09-09T04:40:32;16.40;99.90
46898;DHT22;32646;50.958;6.258;2022-09-09T04:42:59;16.40;99.90
46898;DHT22;32646;50.958;6.258;2022-09-09T04:45:26;16.40;99.90
46898;DHT22;32646;50.958;6.258;2022-09-09T04:47:54;16.30;99.90
46898;DHT22;32646;50.958;6.258;2022-09-09T04:50:20;16.40;99.90
46898;DHT22;32646;50.958;6.258;2022-09-09T04:52:47;16.40;99.90
46898;DHT22;32646;50.958;6.258;2022-09-09T04:55:14;16.40;99.90
46898;DHT22;32646;50.958;6.258;2022-09-09T04:57:40;16.30;99.90
46898;DHT22;32646;50.958;6.258;2022-09-09T05:00:07;16.20;99.90
46898;DHT22;32646;50.958;6.258;2022-09-09T05:02:37;16.20;99.90
46898;DHT22;32646;50.958;6.258;2022-09-09T05:05:04;16.30;99.90
46898;DHT22;32646;50.958;6.258;2022-09-09T05:07:31;16.30;99.90
46898;DHT22;32646;50.958;6.258;2022-09-09T05:09:57;16.20;99.90
46898;DHT22;32646;50.958;6.258;2022-09-09T05:12:25;16.20;99.90
46898;DHT22;32646;50.958;6.258;2022-09-09T05:14:52;16.10;99.90
46898;DHT22;32646;50.958;6.258;2022-09-09T05:17:19;16.00;99.90
46898;DHT22;32646;50.958;6.258;2022-09-09T05:19:45;16.00;99.90
46898;DHT22;32646;50.958;6.258;2022-09-09T05:22:12;16.00;99.90
46898;DHT22;32646;50.958;6.258;2022-09-09T05:24:38;15.90;99.90
46898;DHT22;32646;50.958;6.258;2022-09-09T05:27:05;15.90;99.90
46898;DHT22;32646;50.958;6.258;2022-09-09T05:29:32;15.90;99.90
46898;DHT22;32646;50.958;6.258;2022-09-09T05:31:59;15.90;99.90
46898;DHT22;32646;50.958;6.258;2022-09-09T05:34:26;15.90;99.90
46898;DHT22;32646;50.958;6.258;2022-09-09T05:36:52;15.90;99.90
46898;DHT22;32646;50.958;6.258;2022-09-09T05:39:18;16.00;99.90
46898;DHT22;32646;50.958;6.258;2022-09-09T05:41:45;16.00;99.90
46898;DHT22;32646;50.958;6.258;2022-09-09T05:44:11;16.00;99.90
46898;DHT22;32646;50.958;6.258;2022-09-09T05:46:38;16.00;99.90
46898;DHT22;32646;50.958;6.258;2022-09-09T05:49:05;16.10;99.90
46898;DHT22;32646;50.958;6.258;2022-09-09T05:51:32;16.10;99.90
46898;DHT22;32646;50.958;6.258;2022-09-09T05:53:58;16.00;99.90
46898;DHT22;32646;50.958;6.258;2022-09-09T05:56:27;16.00;99.90
46898;DHT22;32646;50.958;6.258;2022-09-09T05:58:55;16.10;99.90
46898;DHT22;32646;50.958;6.258;2022-09-09T06:01:27;16.10;99.90
46898;DHT22;32646;50.958;6.258;2022-09-09T06:03:54;16.10;99.90
46898;DHT22;32646;50.958;6.258;2022-09-09T06:06:26;16.10;99.90
46898;DHT22;32646;50.958;6.258;2022-09-09T06:08:55;16.20;99.90
46898;DHT22;32646;50.958;6.258;2022-09-09T06:11:26;16.20;99.90
46898;DHT22;32646;50.958;6.258;2022-09-09T06:13:53;16.30;99.90
46898;DHT22;32646;50.958;6.258;2022-09-09T06:16:22;16.30;99.90
46898;DHT22;32646;50.958;6.258;2022-09-09T06:18:49;16.40;99.90
46898;DHT22;32646;50.958;6.258;2022-09-09T06:21:23;16.40;99.90
46898;DHT22;32646;50.958;6.258;2022-09-09T06:23:50;16.40;99.90
46898;DHT22;32646;50.958;6.258;2022-09-09T06:26:26;16.40;99.90
46898;DHT22;32646;50.958;6.258;2022-09-09T06:28:54;16.40;99.90
46898;DHT22;32646;50.958;6.258;2022-09-09T06:31:23;16.50;99.90
46898;DHT22;32646;50.958;6.258;2022-09-09T06:33:55;16.40;99.90
46898;DHT22;32646;50.958;6.258;2022-09-09T06:36:24;16.30;99.90
46898;DHT22;32646;50.958;6.258;2022-09-09T06:38:51;16.30;99.90
46898;DHT22;32646;50.958;6.258;2022-09-09T06:41:19;16.20;99.90
46898;DHT22;32646;50.958;6.258;2022-09-09T06:43:46;16.20;99.90
46898;DHT22;32646;50.958;6.258;2022-09-09T06:46:23;16.20;99.90
46898;DHT22;32646;50.958;6.258;2022-09-09T06:48:50;16.30;99.90
46898;DHT22;32646;50.958;6.258;2022-09-09T06:51:18;16.40;99.90
46898;DHT22;32646;50.958;6.258;2022-09-09T06:53:46;16.50;99.90
46898;DHT22;32646;50.958;6.258;2022-09-09T06:56:27;16.70;99.90
46898;DHT22;32646;50.958;6.258;2022-09-09T06:58:56;16.70;99.90
46898;DHT22;32646;50.958;6.258;2022-09-09T07:01:25;16.90;99.90
46898;DHT22;32646;50.958;6.258;2022-09-09T07:03:53;17.00;99.90
46898;DHT22;32646;50.958;6.258;2022-09-09T07:06:32;17.10;99.90
46898;DHT22;32646;50.958;6.258;2022-09-09T07:09:00;17.20;99.90
46898;DHT22;32646;50.958;6.258;2022-09-09T07:11:33;17.30;99.90
46898;DHT22;32646;50.958;6.258;2022-09-09T07:14:01;17.40;99.90
46898;DHT22;32646;50.958;6.258;2022-09-09T07:16:28;17.50;99.90
46898;DHT22;32646;50.958;6.258;2022-09-09T07:18:55;17.70;99.90
46898;DHT22;32646;50.958;6.258;2022-09-09T07:21:21;17.80;99.90
46898;DHT22;32646;50.958;6.258;2022-09-09T07:23:48;17.90;99.90
46898;DHT22;32646;50.958;6.258;2022-09-09T07:26:17;18.00;99.90
46898;DHT22;32646;50.958;6.258;2022-09-09T07:28:43;18.10;99.90
46898;DHT22;32646;50.958;6.258;2022-09-09T07:31:21;18.00;99.90
46898;DHT22;32646;50.958;6.258;2022-09-09T07:33:48;18.00;99.90
46898;DHT22;32646;50.958;6.258;2022-09-09T07:36:21;17.90;99.90
46898;DHT22;32646;50.958;6.258;2022-09-09T07:38:53;17.80;99.90
46898;DHT22;32646;50.958;6.258;2022-09-09T07:41:35;18.00;99.90
46898;DHT22;32646;50.958;6.258;2022-09-09T07:44:06;18.00;99.90
46898;DHT22;32646;50.958;6.258;2022-09-09T07:46:34;18.10;99.90
46898;DHT22;32646;50.958;6.258;2022-09-09T07:49:03;18.10;99.90
46898;DHT22;32646;50.958;6.258;2022-09-09T07:51:32;18.00;99.90
46898;DHT22;32646;50.958;6.258;2022-09-09T07:54:01;18.10;99.90
46898;DHT22;32646;50.958;6.258;2022-09-09T07:56:29;17.90;99.90
46898;DHT22;32646;50.958;6.258;2022-09-09T07:58:56;17.90;99.90
46898;DHT22;32646;50.958;6.258;2022-09-09T08:04:02;18.20;99.90
46898;DHT22;32646;50.958;6.258;2022-09-09T08:06:33;18.40;99.90
46898;DHT22;32646;50.958;6.258;2022-09-09T08:09:01;18.60;99.90
46898;DHT22;32646;50.958;6.258;2022-09-09T08:11:28;18.50;99.90
46898;DHT22;32646;50.958;6.258;2022-09-09T08:13:55;18.50;99.90
46898;DHT22;32646;50.958;6.258;2022-09-09T08:16:30;18.50;99.90
46898;DHT22;32646;50.958;6.258;2022-09-09T08:18:57;18.80;99.90
46898;DHT22;32646;50.958;6.258;2022-09-09T08:21:26;19.10;99.90
46898;DHT22;32646;50.958;6.258;2022-09-09T08:23:53;19.30;99.90
46898;DHT22;32646;50.958;6.258;2022-09-09T08:26:28;19.20;99.90
46898;DHT22;32646;50.958;6.258;2022-09-09T08:28:56;19.00;99.90
46898;DHT22;32646;50.958;6.258;2022-09-09T08:33:51;18.40;99.90
46898;DHT22;32646;50.958;6.258;2022-09-09T08:36:24;18.70;99.90
46898;DHT22;32646;50.958;6.258;2022-09-09T08:38:53;19.30;99.90
46898;DHT22;32646;50.958;6.258;2022-09-09T08:51:57;19.20;99.50
46898;DHT22;32646;50.958;6.258;2022-09-09T08:54:25;19.10;99.90
46898;DHT22;32646;50.958;6.258;2022-09-09T08:57:19;19.00;99.90
46898;DHT22;32646;50.958;6.258;2022-09-09T08:59:46;19.10;99.90
46898;DHT22;32646;50.958;6.258;2022-09-09T09:02:32;19.90;99.90
46898;DHT22;32646;50.958;6.258;2022-09-09T09:05:35;20.50;97.20
46898;DHT22;32646;50.958;6.258;2022-09-09T09:08:14;21.10;96.50
46898;DHT22;32646;50.958;6.258;2022-09-09T09:10:49;21.50;94.30
46898;DHT22;32646;50.958;6.258;2022-09-09T09:13:22;21.80;94.90
46898;DHT22;32646;50.958;6.258;2022-09-09T09:15:55;21.60;94.90
46898;DHT22;32646;50.958;6.258;2022-09-09T09:18:25;21.80;93.80
46898;DHT22;32646;50.958;6.258;2022-09-09T09:23:58;21.90;92.60
46898;DHT22;32646;50.958;6.258;2022-09-09T09:26:33;21.70;93.70
46898;DHT22;32646;50.958;6.258;2022-09-09T09:29:09;21.20;93.90
46898;DHT22;32646;50.958;6.258;2022-09-09T09:31:36;21.40;94.40
46898;DHT22;32646;50.958;6.258;2022-09-09T09:34:02;21.60;94.30
46898;DHT22;32646;50.958;6.258;2022-09-09T09:36:43;21.10;94.20
46898;DHT22;32646;50.958;6.258;2022-09-09T09:39:21;21.00;95.40
46898;DHT22;32646;50.958;6.258;2022-09-09T09:42:12;20.70;95.10
46898;DHT22;32646;50.958;6.258;2022-09-09T09:44:40;20.40;95.20
46898;DHT22;32646;50.958;6.258;2022-09-09T09:47:21;20.70;95.80
46898;DHT22;32646;50.958;6.258;2022-09-09T09:49:56;20.70;95.40
46898;DHT22;32646;50.958;6.258;2022-09-09T09:52:25;20.70;95.70
46898;DHT22;32646;50.958;6.258;2022-09-09T09:54:53;20.80;94.60
46898;DHT22;32646;50.958;6.258;2022-09-09T09:57:25;20.90;95.00
46898;DHT22;32646;50.958;6.258;2022-09-09T10:02:38;21.20;95.00
46898;DHT22;32646;50.958;6.258;2022-09-09T10:07:32;20.50;95.10
46898;DHT22;32646;50.958;6.258;2022-09-09T10:09:58;20.30;95.10
46898;DHT22;32646;50.958;6.258;2022-09-09T10:15:29;19.70;94.90
46898;DHT22;32646;50.958;6.258;2022-09-09T10:18:13;19.70;95.50
46898;DHT22;32646;50.958;6.258;2022-09-09T10:23:26;19.40;96.30
46898;DHT22;32646;50.958;6.258;2022-09-09T10:37:13;19.70;97.40
46898;DHT22;32646;50.958;6.258;2022-09-09T10:39:43;19.60;96.60
46898;DHT22;32646;50.958;6.258;2022-09-09T10:42:14;19.50;97.30
46898;DHT22;32646;50.958;6.258;2022-09-09T10:44:59;19.60;98.20
46898;DHT22;32646;50.958;6.258;2022-09-09T10:53:36;19.80;97.50
46898;DHT22;32646;50.958;6.258;2022-09-09T10:56:07;19.70;98.10
46898;DHT22;32646;50.958;6.258;2022-09-09T11:01:32;19.80;98.30
46898;DHT22;32646;50.958;6.258;2022-09-09T11:04:49;20.20;97.40
46898;DHT22;32646;50.958;6.258;2022-09-09T11:06:55;20.30;98.10
46898;DHT22;32646;50.958;6.258;2022-09-09T11:09:25;20.30;97.70
46898;DHT22;32646;50.958;6.258;2022-09-09T11:11:56;20.20;97.80
46898;DHT22;32646;50.958;6.258;2022-09-09T11:14:34;20.20;98.60
46898;DHT22;32646;50.958;6.258;2022-09-09T11:17:42;20.20;98.90
46898;DHT22;32646;50.958;6.258;2022-09-09T11:20:00;20.80;97.90
46898;DHT22;32646;50.958;6.258;2022-09-09T11:22:28;21.10;96.90
46898;DHT22;32646;50.958;6.258;2022-09-09T11:25:13;20.80;96.90
46898;DHT22;32646;50.958;6.258;2022-09-09T11:36:43;22.80;93.70
46898;DHT22;32646;50.958;6.258;2022-09-09T11:44:41;21.80;94.80
46898;DHT22;32646;50.958;6.258;2022-09-09T11:47:28;22.00;94.50
46898;DHT22;32646;50.958;6.258;2022-09-09T11:52:41;21.00;94.80
46898;DHT22;32646;50.958;6.258;2022-09-09T11:55:25;20.70;95.90
46898;DHT22;32646;50.958;6.258;2022-09-09T11:57:59;20.50;96.90
46898;DHT22;32646;50.958;6.258;2022-09-09T12:00:33;20.30;97.70
46898;DHT22;32646;50.958;6.258;2022-09-09T12:03:01;20.20;96.90
46898;DHT22;32646;50.958;6.258;2022-09-09T12:05:42;20.10;97.80
46898;DHT22;32646;50.958;6.258;2022-09-09T12:08:15;19.90;98.20
46898;DHT22;32646;50.958;6.258;2022-09-09T12:10:54;19.80;99.40
46898;DHT22;32646;50.958;6.258;2022-09-09T12:13:22;19.50;98.60
46898;DHT22;32646;50.958;6.258;2022-09-09T12:15:51;19.20;99.70
46898;DHT22;32646;50.958;6.258;2022-09-09T12:18:31;19.20;99.90
46898;DHT22;32646;50.958;6.258;2022-09-09T12:23:50;19.30;99.90
46898;DHT22;32646;50.958;6.258;2022-09-09T12:34:31;19.30;99.90
46898;DHT22;32646;50.958;6.258;2022-09-09T12:36:59;19.40;99.90
46898;DHT22;32646;50.958;6.258;2022-09-09T12:41:54;19.60;99.90
46898;DHT22;32646;50.958;6.258;2022-09-09T12:44:20;19.70;99.90
46898;DHT22;32646;50.958;6.258;2022-09-09T12:46:47;19.70;99.90
46898;DHT22;32646;50.958;6.258;2022-09-09T12:49:35;19.90;99.90
46898;DHT22;32646;50.958;6.258;2022-09-09T12:52:04;19.80;99.90
46898;DHT22;32646;50.958;6.258;2022-09-09T12:54:36;19.80;99.90
46898;DHT22;32646;50.958;6.258;2022-09-09T12:57:04;19.60;99.90
46898;DHT22;32646;50.958;6.258;2022-09-09T12:59:40;19.60;99.90
46898;DHT22;32646;50.958;6.258;2022-09-09T13:02:19;19.20;99.90
46898;DHT22;32646;50.958;6.258;2022-09-09T13:04:46;18.50;99.90
46898;DHT22;32646;50.958;6.258;2022-09-09T13:07:13;17.80;99.90
46898;DHT22;32646;50.958;6.258;2022-09-09T13:09:40;17.30;99.90
46898;DHT22;32646;50.958;6.258;2022-09-09T13:12:22;17.30;99.90
46898;DHT22;32646;50.958;6.258;2022-09-09T13:14:51;17.80;99.90
46898;DHT22;32646;50.958;6.258;2022-09-09T13:17:37;18.70;99.90
46898;DHT22;32646;50.958;6.258;2022-09-09T13:20:04;19.10;99.90
46898;DHT22;32646;50.958;6.258;2022-09-09T13:22:34;19.90;99.90
46898;DHT22;32646;50.958;6.258;2022-09-09T13:25:06;20.60;99.90
46898;DHT22;32646;50.958;6.258;2022-09-09T13:33:03;21.00;99.90
46898;DHT22;32646;50.958;6.258;2022-09-09T13:35:30;21.30;99.90
46898;DHT22;32646;50.958;6.258;2022-09-09T13:37:58;21.40;99.90
46898;DHT22;32646;50.958;6.258;2022-09-09T13:40:24;21.70;99.90
46898;DHT22;32646;50.958;6.258;2022-09-09T13:42:56;21.50;99.90
46898;DHT22;32646;50.958;6.258;2022-09-09T13:45:25;21.10;99.90
46898;DHT22;32646;50.958;6.258;2022-09-09T13:47:53;20.80;99.90
46898;DHT22;32646;50.958;6.258;2022-09-09T13:50:23;20.50;99.90
46898;DHT22;32646;50.958;6.258;2022-09-09T13:52:52;20.30;99.90
46898;DHT22;32646;50.958;6.258;2022-09-09T13:55:20;20.30;99.90
46898;DHT22;32646;50.958;6.258;2022-09-09T13:57:55;20.30;99.90
46898;DHT22;32646;50.958;6.258;2022-09-09T14:00:22;20.30;99.90
46898;DHT22;32646;50.958;6.258;2022-09-09T14:02:50;20.20;99.90
46898;DHT22;32646;50.958;6.258;2022-09-09T14:05:19;20.50;99.90
46898;DHT22;32646;50.958;6.258;2022-09-09T14:07:49;21.00;98.90
46898;DHT22;32646;50.958;6.258;2022-09-09T14:10:19;21.00;98.80
46898;DHT22;32646;50.958;6.258;2022-09-09T14:12:45;20.90;98.90
46898;DHT22;32646;50.958;6.258;2022-09-09T14:15:12;21.20;99.90
46898;DHT22;32646;50.958;6.258;2022-09-09T14:17:42;21.70;99.30
46898;DHT22;32646;50.958;6.258;2022-09-09T14:20:10;21.90;99.20
46898;DHT22;32646;50.958;6.258;2022-09-09T14:22:37;21.50;99.40
46898;DHT22;32646;50.958;6.258;2022-09-09T14:25:04;21.20;99.90
46898;DHT22;32646;50.958;6.258;2022-09-09T14:27:31;21.30;99.90
46898;DHT22;32646;50.958;6.258;2022-09-09T14:29:57;21.10;98.40
46898;DHT22;32646;50.958;6.258;2022-09-09T14:32:24;21.40;98.60
46898;DHT22;32646;50.958;6.258;2022-09-09T14:34:50;21.20;98.30
46898;DHT22;32646;50.958;6.258;2022-09-09T14:37:19;21.20;97.70
46898;DHT22;32646;50.958;6.258;2022-09-09T14:39:48;21.10;98.00
46898;DHT22;32646;50.958;6.258;2022-09-09T14:42:15;21.00;97.70
46898;DHT22;32646;50.958;6.258;2022-09-09T14:44:41;20.80;97.40
46898;DHT22;32646;50.958;6.258;2022-09-09T14:47:08;20.60;98.00
46898;DHT22;32646;50.958;6.258;2022-09-09T14:49:35;20.40;99.10
46898;DHT22;32646;50.958;6.258;2022-09-09T14:52:03;20.30;99.10
46898;DHT22;32646;50.958;6.258;2022-09-09T14:54:29;20.20;99.40
46898;DHT22;32646;50.958;6.258;2022-09-09T14:56:56;20.00;99.90
46898;DHT22;32646;50.958;6.258;2022-09-09T14:59:22;19.80;99.90
46898;DHT22;32646;50.958;6.258;2022-09-09T15:01:49;19.60;99.90
46898;DHT22;32646;50.958;6.258;2022-09-09T15:04:15;19.50;99.90
46898;DHT22;32646;50.958;6.258;2022-09-09T15:06:42;19.40;99.90
46898;DHT22;32646;50.958;6.258;2022-09-09T15:09:09;19.40;99.90
46898;DHT22;32646;50.958;6.258;2022-09-09T15:11:37;19.50;99.90
46898;DHT22;32646;50.958;6.258;2022-09-09T15:14:04;19.60;99.90
46898;DHT22;32646;50.958;6.258;2022-09-09T15:16:32;19.60;99.90
46898;DHT22;32646;50.958;6.258;2022-09-09T15:19:00;20.00;99.90
46898;DHT22;32646;50.958;6.258;2022-09-09T15:21:32;20.10;99.90
46898;DHT22;32646;50.958;6.258;2022-09-09T15:23:59;19.90;99.90
46898;DHT22;32646;50.958;6.258;2022-09-09T15:26:26;19.60;99.90
46898;DHT22;32646;50.958;6.258;2022-09-09T15:28:53;19.30;99.90
46898;DHT22;32646;50.958;6.258;2022-09-09T15:31:22;19.00;99.90
46898;DHT22;32646;50.958;6.258;2022-09-09T15:33:53;18.80;99.90
46898;DHT22;32646;50.958;6.258;2022-09-09T15:36:25;18.30;99.90
46898;DHT22;32646;50.958;6.258;2022-09-09T15:38:52;17.70;99.90
46898;DHT22;32646;50.958;6.258;2022-09-09T15:41:21;17.30;99.90
46898;DHT22;32646;50.958;6.258;2022-09-09T15:43:49;17.00;99.90
46898;DHT22;32646;50.958;6.258;2022-09-09T15:48:44;17.20;99.90
46898;DHT22;32646;50.958;6.258;2022-09-09T15:51:11;17.60;99.90
46898;DHT22;32646;50.958;6.258;2022-09-09T15:53:58;17.60;99.90
46898;DHT22;32646;50.958;6.258;2022-09-09T15:56:26;17.80;99.90
46898;DHT22;32646;50.958;6.258;2022-09-09T15:58:55;18.00;99.90
46898;DHT22;32646;50.958;6.258;2022-09-09T16:01:21;18.00;99.90
46898;DHT22;32646;50.958;6.258;2022-09-09T16:03:48;18.00;99.90
46898;DHT22;32646;50.958;6.258;2022-09-09T16:06:16;18.00;99.90
46898;DHT22;32646;50.958;6.258;2022-09-09T16:08:45;18.10;99.90
46898;DHT22;32646;50.958;6.258;2022-09-09T16:11:15;18.20;99.90
46898;DHT22;32646;50.958;6.258;2022-09-09T16:13:43;18.20;99.90
46898;DHT22;32646;50.958;6.258;2022-09-09T16:16:18;18.30;99.90
46898;DHT22;32646;50.958;6.258;2022-09-09T16:18:46;18.30;99.90
46898;DHT22;32646;50.958;6.258;2022-09-09T16:21:16;18.40;99.90
46898;DHT22;32646;50.958;6.258;2022-09-09T16:23:43;18.30;99.90
46898;DHT22;32646;50.958;6.258;2022-09-09T16:26:14;18.20;99.90
46898;DHT22;32646;50.958;6.258;2022-09-09T16:28:42;18.10;99.90
46898;DHT22;32646;50.958;6.258;2022-09-09T16:31:11;18.20;99.90
46898;DHT22;32646;50.958;6.258;2022-09-09T16:33:39;18.20;99.90
46898;DHT22;32646;50.958;6.258;2022-09-09T16:36:07;18.20;99.90
46898;DHT22;32646;50.958;6.258;2022-09-09T16:38:34;18.20;99.90
46898;DHT22;32646;50.958;6.258;2022-09-09T16:41:02;18.10;99.90
46898;DHT22;32646;50.958;6.258;2022-09-09T16:43:29;18.20;99.90
46898;DHT22;32646;50.958;6.258;2022-09-09T16:45:56;18.20;99.90
46898;DHT22;32646;50.958;6.258;2022-09-09T16:48:23;18.20;99.90
46898;DHT22;32646;50.958;6.258;2022-09-09T16:50:49;18.30;99.90
46898;DHT22;32646;50.958;6.258;2022-09-09T16:53:16;18.20;99.90
46898;DHT22;32646;50.958;6.258;2022-09-09T16:55:42;18.10;99.90
46898;DHT22;32646;50.958;6.258;2022-09-09T16:58:10;18.10;99.90
46898;DHT22;32646;50.958;6.258;2022-09-09T17:00:37;18.10;99.90
46898;DHT22;32646;50.958;6.258;2022-09-09T17:03:04;18.10;99.90
46898;DHT22;32646;50.958;6.258;2022-09-09T17:05:30;18.00;99.90
46898;DHT22;32646;50.958;6.258;2022-09-09T17:07:57;17.90;99.90
46898;DHT22;32646;50.958;6.258;2022-09-09T17:10:26;17.80;99.90
46898;DHT22;32646;50.958;6.258;2022-09-09T17:12:53;17.70;99.90
46898;DHT22;32646;50.958;6.258;2022-09-09T17:15:19;17.80;99.90
46898;DHT22;32646;50.958;6.258;2022-09-09T17:17:46;17.70;99.90
46898;DHT22;32646;50.958;6.258;2022-09-09T17:20:13;17.70;99.90
46898;DHT22;32646;50.958;6.258;2022-09-09T17:22:39;17.70;99.90
46898;DHT22;32646;50.958;6.258;2022-09-09T17:25:06;17.80;99.90
46898;DHT22;32646;50.958;6.258;2022-09-09T17:27:33;17.70;99.90
46898;DHT22;32646;50.958;6.258;2022-09-09T17:30:00;17.80;99.90
46898;DHT22;32646;50.958;6.258;2022-09-09T17:32:27;17.80;99.90
46898;DHT22;32646;50.958;6.258;2022-09-09T17:34:54;17.90;99.90
46898;DHT22;32646;50.958;6.258;2022-09-09T17:37:21;17.80;99.90
46898;DHT22;32646;50.958;6.258;2022-09-09T17:39:47;17.80;99.90